Time;durP1;ratioP1;P1;durP2;ratioP2;P2;SDS_P1;SDS_P2;PMS_P1;PMS_P2;Temp;Humidity;BMP_temperature;BMP_pressure;BME280_temperature;BME280_humidity;BME280_pressure;Samples;Min_cycle;Max_cycle;Signal;HPM_P1;HPM_P2
2022/09/11 00:01:04;;;;;;;;;16.75;16.75;;;;;;;;5075875;28;45455;-75
2022/09/11 00:03:30;;;;;;;;;20.75;20.75;;;;;;;;5075417;28;45377;-75
2022/09/11 00:05:55;;;;;;;;;17.00;16.50;;;;;;;;5075322;28;45339;-76
2022/09/11 00:08:21;;;;;;;;;20.00;20.00;;;;;;;;5074938;28;45257;-75
2022/09/11 00:10:47;;;;;;;;;23.00;23.00;;;;;;;;5056692;28;45497;-76
2022/09/11 00:13:20;;;;;;;;;9.50;9.50;;;;;;;;5074793;28;45493;-76
2022/09/11 00:15:46;;;;;;;;;20.00;20.00;;;;;;;;5074881;28;45323;-76
2022/09/11 00:18:12;;;;;;;;;17.75;17.75;;;;;;;;5075095;28;45321;-76
2022/09/11 00:20:37;;;;;;;;;16.00;16.00;;;;;;;;5056793;28;45316;-76
2022/09/11 00:23:06;;;;;;;;;16.50;16.25;;;;;;;;5056847;27;47428;-75
2022/09/11 00:25:34;;;;;;;;;16.75;16.75;;;;;;;;5074937;28;45372;-76
2022/09/11 00:28:00;;;;;;;;;21.00;21.00;;;;;;;;5056859;28;45404;-75
2022/09/11 00:30:25;;;;;;;;;18.25;18.25;;;;;;;;5074965;28;45624;-75
2022/09/11 00:32:51;;;;;;;;;15.00;15.00;;;;;;;;5074302;28;46045;-75
2022/09/11 00:35:16;;;;;;;;;13.75;13.75;;;;;;;;5056348;28;45391;-76
2022/09/11 00:37:41;;;;;;;;;17.00;17.00;;;;;;;;5074507;28;45363;-76
2022/09/11 00:40:07;;;;;;;;;13.50;13.50;;;;;;;;5074965;28;45336;-75
2022/09/11 00:42:32;;;;;;;;;19.75;19.75;;;;;;;;5074594;28;46173;-76
2022/09/11 00:44:59;;;;;;;;;13.75;13.75;;;;;;;;5074443;28;45313;-75
2022/09/11 00:47:24;;;;;;;;;18.50;18.50;;;;;;;;5074636;28;45270;-75
2022/09/11 00:49:53;;;;;;;;;16.50;16.50;;;;;;;;5074659;28;45670;-75
2022/09/11 00:52:33;;;;;;;;;14.75;14.75;;;;;;;;5074075;28;45478;-75
2022/09/11 00:55:07;;;;;;;;;16.00;16.00;;;;;;;;5055941;28;45968;-75
2022/09/11 00:57:39;;;;;;;;;18.50;18.50;;;;;;;;5078142;28;45386;-77
2022/09/11 01:00:06;;;;;;;;;16.00;16.00;;;;;;;;5059973;28;45253;-74
2022/09/11 01:02:33;;;;;;;;;20.00;20.00;;;;;;;;5077951;28;45594;-74
2022/09/11 01:04:58;;;;;;;;;22.75;20.50;;;;;;;;5059195;28;45911;-76
2022/09/11 01:07:25;;;;;;;;;18.75;18.75;;;;;;;;5078036;28;45358;-76
2022/09/11 01:09:50;;;;;;;;;20.50;19.25;;;;;;;;5078162;28;45515;-75
2022/09/11 01:12:25;;;;;;;;;15.00;15.00;;;;;;;;5059486;28;48350;-76
2022/09/11 01:15:06;;;;;;;;;19.00;19.00;;;;;;;;5059228;28;45443;-76
2022/09/11 01:17:50;;;;;;;;;19.25;19.25;;;;;;;;5077525;28;45343;-76
2022/09/11 01:20:35;;;;;;;;;22.50;22.50;;;;;;;;5059520;28;45300;-77
2022/09/11 01:23:19;;;;;;;;;21.25;21.25;;;;;;;;5077212;28;46258;-77
2022/09/11 01:25:44;;;;;;;;;20.75;20.75;;;;;;;;5077384;28;45401;-75
2022/09/11 01:28:13;;;;;;;;;20.25;20.25;;;;;;;;5077653;28;45323;-75
2022/09/11 01:30:39;;;;;;;;;21.50;21.50;;;;;;;;5077766;28;45313;-75
2022/09/11 01:33:08;;;;;;;;;19.75;19.75;;;;;;;;5077432;28;46506;-77
2022/09/11 01:35:52;;;;;;;;;21.50;21.50;;;;;;;;5077391;28;45434;-75
2022/09/11 01:38:23;;;;;;;;;19.50;18.75;;;;;;;;5077352;28;45331;-76
2022/09/11 01:40:58;;;;;;;;;22.25;22.25;;;;;;;;5077685;28;45212;-76
2022/09/11 01:43:31;;;;;;;;;18.00;18.00;;;;;;;;5077272;28;45427;-76
2022/09/11 01:45:58;;;;;;;;;18.75;18.50;;;;;;;;5077213;28;45533;-75
2022/09/11 01:48:28;;;;;;;;;25.50;25.00;;;;;;;;5077652;28;45239;-76
2022/09/11 01:50:55;;;;;;;;;19.00;19.00;;;;;;;;5078117;28;45389;-75
2022/09/11 01:53:22;;;;;;;;;20.75;20.75;;;;;;;;5077480;28;45322;-76
2022/09/11 01:55:50;;;;;;;;;21.00;20.00;;;;;;;;5079034;28;45291;-74
2022/09/11 01:58:28;;;;;;;;;22.75;21.75;;;;;;;;5085324;28;45319;-75
2022/09/11 02:00:57;;;;;;;;;21.50;21.50;;;;;;;;5062226;28;45359;-76
2022/09/11 02:03:23;;;;;;;;;20.25;20.25;;;;;;;;5080250;28;45342;-75
2022/09/11 02:05:53;;;;;;;;;25.00;23.75;;;;;;;;5077997;28;45230;-77
2022/09/11 02:08:23;;;;;;;;;31.00;30.75;;;;;;;;5058491;28;45363;-76
2022/09/11 02:10:55;;;;;;;;;21.50;21.50;;;;;;;;5075462;27;45540;-75
2022/09/11 02:13:28;;;;;;;;;23.00;23.00;;;;;;;;5075752;28;45516;-77
2022/09/11 02:15:57;;;;;;;;;22.25;22.25;;;;;;;;5077235;28;45445;-75
2022/09/11 02:18:25;;;;;;;;;3.25;3.25;;;;;;;;5076960;28;45436;-76
2022/09/11 02:20:52;;;;;;;;;27.50;27.50;;;;;;;;5077251;28;45406;-76
2022/09/11 02:23:17;;;;;;;;;21.50;21.50;;;;;;;;5076702;28;45677;-75
2022/09/11 02:25:43;;;;;;;;;22.00;22.00;;;;;;;;5076776;28;45322;-77
2022/09/11 02:28:08;;;;;;;;;21.25;21.25;;;;;;;;5077111;28;45733;-74
2022/09/11 02:30:33;;;;;;;;;20.25;20.25;;;;;;;;5058794;28;45476;-77
2022/09/11 02:32:59;;;;;;;;;21.00;21.00;;;;;;;;5076696;28;45357;-77
2022/09/11 02:35:28;;;;;;;;;19.75;19.75;;;;;;;;5075842;28;45444;-76
2022/09/11 02:38:19;;;;;;;;;22.00;22.00;;;;;;;;5076287;27;45169;-76
2022/09/11 02:40:51;;;;;;;;;22.25;22.25;;;;;;;;5075792;28;45535;-76
2022/09/11 02:43:17;;;;;;;;;26.00;26.00;;;;;;;;5075822;28;46500;-76
2022/09/11 02:45:54;;;;;;;;;23.00;22.25;;;;;;;;5076268;28;45322;-76
2022/09/11 02:48:38;;;;;;;;;18.75;18.75;;;;;;;;5076542;28;45283;-76
2022/09/11 02:51:03;;;;;;;;;23.50;23.50;;;;;;;;5076170;28;45762;-76
2022/09/11 02:53:38;;;;;;;;;24.25;24.00;;;;;;;;5076204;27;45885;-77
2022/09/11 02:56:20;;;;;;;;;22.50;21.75;;;;;;;;5076045;28;45456;-76
2022/09/11 02:58:49;;;;;;;;;27.00;27.00;;;;;;;;5076024;28;45220;-76
2022/09/11 03:01:14;;;;;;;;;23.75;23.25;;;;;;;;5058037;28;45573;-78
2022/09/11 03:03:43;;;;;;;;;23.00;23.00;;;;;;;;5076605;28;45378;-75
2022/09/11 03:06:10;;;;;;;;;22.75;22.75;;;;;;;;5057893;28;46234;-77
2022/09/11 03:08:36;;;;;;;;;19.25;19.25;;;;;;;;5076225;28;45344;-77
2022/09/11 03:11:01;;;;;;;;;29.75;29.75;;;;;;;;5057930;28;45488;-76
2022/09/11 03:13:26;;;;;;;;;21.25;21.25;;;;;;;;5057643;28;48026;-74
2022/09/11 03:15:51;;;;;;;;;23.25;23.25;;;;;;;;5075736;28;45198;-76
2022/09/11 03:18:17;;;;;;;;;20.25;20.25;;;;;;;;5074547;28;45233;-77
2022/09/11 03:20:46;;;;;;;;;25.00;23.25;;;;;;;;5076087;28;45220;-76
2022/09/11 03:23:11;;;;;;;;;18.25;18.25;;;;;;;;5075691;28;45455;-76
2022/09/11 03:25:37;;;;;;;;;20.25;20.25;;;;;;;;5075640;28;45418;-76
2022/09/11 03:28:03;;;;;;;;;21.00;21.00;;;;;;;;5075392;28;45410;-76
2022/09/11 03:30:29;;;;;;;;;23.75;23.75;;;;;;;;5057281;28;45615;-77
2022/09/11 03:32:54;;;;;;;;;22.25;22.25;;;;;;;;5075232;28;46702;-78
2022/09/11 03:35:20;;;;;;;;;23.25;22.75;;;;;;;;5057394;28;45398;-78
2022/09/11 03:37:46;;;;;;;;;25.75;24.25;;;;;;;;5076094;27;45382;-74
2022/09/11 03:40:11;;;;;;;;;25.25;25.25;;;;;;;;5076190;28;45196;-76
2022/09/11 03:42:37;;;;;;;;;26.00;26.00;;;;;;;;5075300;28;45311;-77
2022/09/11 03:45:02;;;;;;;;;24.25;24.25;;;;;;;;5075414;28;45281;-75
2022/09/11 03:47:28;;;;;;;;;32.50;31.50;;;;;;;;5075813;28;45314;-76
2022/09/11 03:49:54;;;;;;;;;23.75;23.75;;;;;;;;5057426;28;45614;-76
2022/09/11 03:52:20;;;;;;;;;25.00;25.00;;;;;;;;5075090;28;46487;-78
2022/09/11 03:54:46;;;;;;;;;29.75;29.75;;;;;;;;5075522;28;45426;-77
2022/09/11 03:57:12;;;;;;;;;25.25;25.00;;;;;;;;5075591;28;45377;-78
2022/09/11 03:59:37;;;;;;;;;23.75;22.50;;;;;;;;5075330;28;45322;-76
2022/09/11 04:02:03;;;;;;;;;23.00;23.00;;;;;;;;5075053;28;46414;-75
2022/09/11 04:04:28;;;;;;;;;22.25;21.75;;;;;;;;5075021;28;45463;-77
2022/09/11 04:06:54;;;;;;;;;25.50;25.50;;;;;;;;5075068;28;45305;-76
2022/09/11 04:09:19;;;;;;;;;23.50;23.50;;;;;;;;5075312;28;45526;-78
2022/09/11 04:11:45;;;;;;;;;23.75;23.75;;;;;;;;5074946;28;46065;-76
2022/09/11 04:14:10;;;;;;;;;26.75;25.50;;;;;;;;5074677;28;45377;-75
2022/09/11 04:16:35;;;;;;;;;21.75;21.75;;;;;;;;5075098;28;45214;-76
2022/09/11 04:19:01;;;;;;;;;27.00;27.00;;;;;;;;5075199;28;45561;-75
2022/09/11 04:21:27;;;;;;;;;24.50;24.00;;;;;;;;5074743;28;45408;-76
2022/09/11 04:23:55;;;;;;;;;25.75;25.75;;;;;;;;5075210;28;45330;-78
2022/09/11 04:26:21;;;;;;;;;22.75;22.75;;;;;;;;5075037;28;45398;-79
2022/09/11 04:28:47;;;;;;;;;27.75;27.75;;;;;;;;5075339;28;45258;-76
2022/09/11 04:31:13;;;;;;;;;29.00;28.00;;;;;;;;5078101;28;45465;-76
2022/09/11 04:33:38;;;;;;;;;27.00;27.00;;;;;;;;5060829;28;45803;-77
2022/09/11 04:36:05;;;;;;;;;23.75;23.75;;;;;;;;5080513;27;45471;-70
2022/09/11 04:38:30;;;;;;;;;23.00;23.00;;;;;;;;5091967;27;45541;-78
2022/09/11 04:40:58;;;;;;;;;29.25;28.25;;;;;;;;5077681;28;45355;-79
2022/09/11 04:43:24;;;;;;;;;25.25;24.25;;;;;;;;5077671;28;45500;-78
2022/09/11 04:45:49;;;;;;;;;29.50;28.25;;;;;;;;5078319;28;45296;-77
2022/09/11 04:48:14;;;;;;;;;25.00;24.50;;;;;;;;5061165;27;45698;-79
2022/09/11 04:50:40;;;;;;;;;27.00;27.00;;;;;;;;5077183;27;46060;-80
2022/09/11 04:53:05;;;;;;;;;27.50;26.25;;;;;;;;5078864;28;45347;-80
2022/09/11 04:55:30;;;;;;;;;20.50;20.50;;;;;;;;5078662;28;45336;-80
2022/09/11 04:57:55;;;;;;;;;20.25;20.25;;;;;;;;5078608;28;45308;-80
2022/09/11 05:00:21;;;;;;;;;25.75;25.75;;;;;;;;5078357;28;45364;-78
2022/09/11 05:02:46;;;;;;;;;26.00;26.00;;;;;;;;5079650;28;45260;-81
2022/09/11 05:05:12;;;;;;;;;28.75;27.50;;;;;;;;5081647;28;45298;-78
2022/09/11 05:07:37;;;;;;;;;27.25;26.75;;;;;;;;5085412;28;45332;-79
2022/09/11 05:10:03;;;;;;;;;26.75;26.75;;;;;;;;5089333;28;46183;-81
2022/09/11 05:12:28;;;;;;;;;27.50;27.00;;;;;;;;5086512;28;45238;-79
2022/09/11 05:14:53;;;;;;;;;26.50;24.75;;;;;;;;5083830;28;45379;-78
2022/09/11 05:17:18;;;;;;;;;26.00;26.00;;;;;;;;5088572;28;45591;-77
2022/09/11 05:19:44;;;;;;;;;25.75;25.75;;;;;;;;5087183;28;45435;-79
2022/09/11 05:22:09;;;;;;;;;28.00;28.00;;;;;;;;5086690;28;45555;-79
2022/09/11 05:24:34;;;;;;;;;27.50;26.25;;;;;;;;5082954;28;45284;-79
2022/09/11 05:27:00;;;;;;;;;26.75;26.75;;;;;;;;5080017;28;45711;-78
2022/09/11 05:29:27;;;;;;;;;28.75;28.75;;;;;;;;5079010;28;45547;-81
2022/09/11 05:31:54;;;;;;;;;27.25;27.25;;;;;;;;5078697;28;45416;-78
2022/09/11 05:34:20;;;;;;;;;29.50;29.50;;;;;;;;5079548;28;45306;-78
2022/09/11 05:36:45;;;;;;;;;27.25;27.25;;;;;;;;5060466;28;45527;-78
2022/09/11 05:39:10;;;;;;;;;28.75;28.00;;;;;;;;5080968;28;46517;-79
2022/09/11 05:41:35;;;;;;;;;28.25;25.50;;;;;;;;5088740;28;45193;-78
2022/09/11 05:44:01;;;;;;;;;26.50;26.00;;;;;;;;5084266;28;45413;-78
2022/09/11 05:46:26;;;;;;;;;22.25;22.25;;;;;;;;5060855;28;45409;-79
2022/09/11 05:48:51;;;;;;;;;32.25;29.75;;;;;;;;5077679;28;45447;-78
2022/09/11 05:51:20;;;;;;;;;29.00;29.00;;;;;;;;5076904;28;45241;-79
2022/09/11 05:53:46;;;;;;;;;24.75;24.75;;;;;;;;5077360;28;45335;-79
2022/09/11 05:56:11;;;;;;;;;28.25;26.75;;;;;;;;5077998;28;45671;-80
2022/09/11 05:58:36;;;;;;;;;24.00;24.00;;;;;;;;5076850;28;45530;-79
2022/09/11 06:01:06;;;;;;;;;28.25;25.00;;;;;;;;5059860;28;45174;-80
2022/09/11 06:03:31;;;;;;;;;29.00;29.00;;;;;;;;5077223;28;45424;-79
2022/09/11 06:05:58;;;;;;;;;33.75;31.75;;;;;;;;5077753;28;45405;-80
2022/09/11 06:08:23;;;;;;;;;26.00;26.00;;;;;;;;5077850;28;46362;-79
2022/09/11 06:10:48;;;;;;;;;26.00;25.50;;;;;;;;5078862;28;45305;-79
2022/09/11 06:13:19;;;;;;;;;27.00;27.00;;;;;;;;5082726;28;45336;-79
2022/09/11 06:15:45;;;;;;;;;26.25;26.25;;;;;;;;5083048;28;45391;-81
2022/09/11 06:18:10;;;;;;;;;30.50;29.75;;;;;;;;5072064;28;45493;-80
2022/09/11 06:20:35;;;;;;;;;32.00;30.75;;;;;;;;5060282;28;45533;-79
2022/09/11 06:23:01;;;;;;;;;28.50;28.50;;;;;;;;5061829;27;45530;-78
2022/09/11 06:25:26;;;;;;;;;32.00;31.25;;;;;;;;5057685;28;45271;-79
2022/09/11 06:27:51;;;;;;;;;25.75;25.75;;;;;;;;5056869;28;45900;-79
2022/09/11 06:30:17;;;;;;;;;30.00;29.75;;;;;;;;5038622;28;45904;-80
2022/09/11 06:32:42;;;;;;;;;28.25;28.25;;;;;;;;5056607;28;45332;-79
2022/09/11 06:35:07;;;;;;;;;29.25;29.25;;;;;;;;5057399;28;45618;-78
2022/09/11 06:37:34;;;;;;;;;29.75;28.00;;;;;;;;5057039;28;45527;-80
2022/09/11 06:39:59;;;;;;;;;36.75;33.75;;;;;;;;5057693;28;45380;-78
2022/09/11 06:42:24;;;;;;;;;30.25;30.00;;;;;;;;5039212;28;45367;-79
2022/09/11 06:44:50;;;;;;;;;32.00;30.50;;;;;;;;5056623;28;45502;-80
2022/09/11 06:47:16;;;;;;;;;34.75;31.75;;;;;;;;5056807;28;45451;-79
2022/09/11 06:49:41;;;;;;;;;26.75;26.75;;;;;;;;5056158;28;45388;-80
2022/09/11 06:52:08;;;;;;;;;32.00;30.75;;;;;;;;5038644;28;45260;-78
2022/09/11 06:54:33;;;;;;;;;34.25;31.50;;;;;;;;5057713;28;45438;-78
2022/09/11 06:56:58;;;;;;;;;33.00;31.50;;;;;;;;5058706;28;45731;-78
2022/09/11 06:59:24;;;;;;;;;33.75;31.75;;;;;;;;5058512;28;45335;-78
2022/09/11 07:01:50;;;;;;;;;31.50;31.00;;;;;;;;5057458;28;45438;-78
2022/09/11 07:04:15;;;;;;;;;28.25;28.25;;;;;;;;5057038;28;45288;-79
2022/09/11 07:06:40;;;;;;;;;33.50;31.75;;;;;;;;5056855;28;46574;-79
2022/09/11 07:09:06;;;;;;;;;32.25;31.00;;;;;;;;5056583;28;45304;-79
2022/09/11 07:11:33;;;;;;;;;35.00;32.50;;;;;;;;5055927;28;45295;-78
2022/09/11 07:13:59;;;;;;;;;25.75;25.75;;;;;;;;5056179;28;45454;-78
2022/09/11 07:16:24;;;;;;;;;29.75;29.00;;;;;;;;5056698;28;46609;-80
2022/09/11 07:18:50;;;;;;;;;31.00;30.75;;;;;;;;5058154;28;45297;-80
2022/09/11 07:21:17;;;;;;;;;27.75;27.75;;;;;;;;5038823;28;45375;-79
2022/09/11 07:23:45;;;;;;;;;35.00;32.00;;;;;;;;5056566;28;45683;-77
2022/09/11 07:26:11;;;;;;;;;27.50;27.50;;;;;;;;5056061;28;46424;-77
2022/09/11 07:28:37;;;;;;;;;32.50;31.50;;;;;;;;5055620;28;45414;-77
2022/09/11 07:31:10;;;;;;;;;30.25;29.75;;;;;;;;5037736;28;45464;-78
2022/09/11 07:33:36;;;;;;;;;27.75;27.75;;;;;;;;5056046;28;45567;-80
2022/09/11 07:36:10;;;;;;;;;32.50;31.00;;;;;;;;5056015;28;45498;-77
2022/09/11 07:38:35;;;;;;;;;25.00;25.00;;;;;;;;5055181;28;45328;-78
2022/09/11 07:41:01;;;;;;;;;27.25;27.25;;;;;;;;5055130;28;45305;-79
2022/09/11 07:43:26;;;;;;;;;27.75;26.75;;;;;;;;5055283;28;45543;-77
2022/09/11 07:45:52;;;;;;;;;27.00;26.00;;;;;;;;5055628;28;45580;-79
2022/09/11 07:48:17;;;;;;;;;26.75;26.75;;;;;;;;5036239;28;45621;-78
2022/09/11 07:50:53;;;;;;;;;36.25;33.75;;;;;;;;5055023;28;45406;-77
2022/09/11 07:53:18;;;;;;;;;31.50;30.00;;;;;;;;5036228;28;45910;-77
2022/09/11 07:55:44;;;;;;;;;25.50;25.50;;;;;;;;5054194;28;46294;-78
2022/09/11 07:58:09;;;;;;;;;27.00;27.00;;;;;;;;5054397;28;45229;-77
2022/09/11 08:00:35;;;;;;;;;27.25;27.25;;;;;;;;5036908;28;45355;-78
2022/09/11 08:03:00;;;;;;;;;30.75;30.00;;;;;;;;5056345;28;45737;-79
2022/09/11 08:05:25;;;;;;;;;25.75;25.75;;;;;;;;5058753;28;45376;-79
2022/09/11 08:07:51;;;;;;;;;23.00;23.00;;;;;;;;5060676;28;45234;-80
2022/09/11 08:10:16;;;;;;;;;28.50;27.50;;;;;;;;5060153;28;45192;-81
2022/09/11 08:12:41;;;;;;;;;25.50;25.50;;;;;;;;5068404;28;45332;-79
2022/09/11 08:15:07;;;;;;;;;31.75;31.00;;;;;;;;5074400;28;45949;-79
2022/09/11 08:17:33;;;;;;;;;26.75;26.75;;;;;;;;5065671;28;45485;-77
2022/09/11 08:19:58;;;;;;;;;26.00;26.00;;;;;;;;5043507;28;45576;-80
2022/09/11 08:22:23;;;;;;;;;25.50;25.25;;;;;;;;5059816;28;45458;-79
2022/09/11 08:24:48;;;;;;;;;28.50;28.50;;;;;;;;5062710;27;46123;-76
2022/09/11 08:27:14;;;;;;;;;20.75;20.75;;;;;;;;5087316;27;45298;-79
2022/09/11 08:29:40;;;;;;;;;17.75;17.75;;;;;;;;5095133;27;45540;-79
2022/09/11 08:32:05;;;;;;;;;19.75;18.75;;;;;;;;5099636;27;45456;-79
2022/09/11 08:34:31;;;;;;;;;19.00;19.00;;;;;;;;5079819;27;46255;-77
2022/09/11 08:36:56;;;;;;;;;21.75;21.75;;;;;;;;5099997;27;45551;-83
2022/09/11 08:39:21;;;;;;;;;14.00;14.00;;;;;;;;5084295;27;45537;-80
2022/09/11 08:41:58;;;;;;;;;15.25;15.25;;;;;;;;5081156;27;45495;-79
2022/09/11 08:44:28;;;;;;;;;19.00;18.00;;;;;;;;5066084;28;47429;-78
2022/09/11 08:46:58;;;;;;;;;17.00;17.00;;;;;;;;5090045;27;45344;-81
2022/09/11 08:49:23;;;;;;;;;19.75;19.75;;;;;;;;5080019;27;45854;-80
2022/09/11 08:51:50;;;;;;;;;20.00;20.00;;;;;;;;5075944;28;45500;-83
2022/09/11 08:54:23;;;;;;;;;18.00;18.00;;;;;;;;5061329;28;48056;-79
2022/09/11 08:56:50;;;;;;;;;19.00;19.00;;;;;;;;5084439;27;45422;-77
2022/09/11 08:59:37;;;;;;;;;19.00;19.00;;;;;;;;5087026;27;45243;-81
2022/09/11 09:02:05;;;;;;;;;20.25;20.25;;;;;;;;5074950;27;45477;-80
2022/09/11 09:04:54;;;;;;;;;24.00;24.00;;;;;;;;5078773;27;46210;-78
2022/09/11 09:07:31;;;;;;;;;22.75;22.75;;;;;;;;5056085;27;45519;-78
2022/09/11 09:10:20;;;;;;;;;18.50;18.50;;;;;;;;5072899;27;45441;-77
2022/09/11 09:13:14;;;;;;;;;23.50;23.00;;;;;;;;5070095;27;45461;-79
2022/09/11 09:15:39;;;;;;;;;27.00;27.00;;;;;;;;5072618;28;46509;-78
2022/09/11 09:18:11;;;;;;;;;26.25;26.25;;;;;;;;5079536;27;45868;-75
2022/09/11 09:20:44;;;;;;;;;20.00;20.00;;;;;;;;5087245;27;45208;-80
2022/09/11 09:23:20;;;;;;;;;27.75;27.75;;;;;;;;5061100;28;45645;-79
2022/09/11 09:25:45;;;;;;;;;19.50;19.50;;;;;;;;5077559;27;46914;-78
2022/09/11 09:28:18;;;;;;;;;21.00;21.00;;;;;;;;5074342;28;45346;-77
2022/09/11 09:30:48;;;;;;;;;19.50;19.50;;;;;;;;5075216;28;45398;-77
2022/09/11 09:33:14;;;;;;;;;18.25;18.25;;;;;;;;5092103;27;45671;-77
2022/09/11 09:35:42;;;;;;;;;20.00;20.00;;;;;;;;5079602;27;45608;-76
2022/09/11 09:38:10;;;;;;;;;18.25;18.25;;;;;;;;5076471;28;45370;-77
2022/09/11 09:40:37;;;;;;;;;24.50;24.50;;;;;;;;5075296;28;45360;-78
2022/09/11 09:43:18;;;;;;;;;19.50;19.50;;;;;;;;5074717;28;45417;-78
2022/09/11 09:46:03;;;;;;;;;16.75;16.75;;;;;;;;5073733;27;45318;-79
2022/09/11 09:48:31;;;;;;;;;17.00;17.00;;;;;;;;5075780;27;45513;-78
2022/09/11 09:50:56;;;;;;;;;16.75;16.75;;;;;;;;5056862;28;45455;-76
2022/09/11 09:53:26;;;;;;;;;20.25;20.25;;;;;;;;5082794;27;45379;-80
2022/09/11 09:55:53;;;;;;;;;16.25;16.25;;;;;;;;5093130;27;46258;-78
2022/09/11 09:58:22;;;;;;;;;19.50;19.50;;;;;;;;5077212;27;45209;-78
2022/09/11 10:00:47;;;;;;;;;15.00;15.00;;;;;;;;5074421;27;46159;-77
2022/09/11 10:03:22;;;;;;;;;16.50;16.50;;;;;;;;5092822;27;45592;-77
2022/09/11 10:05:49;;;;;;;;;20.50;20.50;;;;;;;;5093387;27;47130;-78
2022/09/11 10:08:34;;;;;;;;;17.00;16.25;;;;;;;;5074604;28;45445;-79
2022/09/11 10:11:04;;;;;;;;;15.00;15.00;;;;;;;;5062919;28;45504;-78
2022/09/11 10:13:31;;;;;;;;;20.50;20.50;;;;;;;;5070980;28;45351;-81
2022/09/11 10:15:58;;;;;;;;;14.25;14.25;;;;;;;;5087978;27;45519;-77
2022/09/11 10:18:29;;;;;;;;;14.50;14.50;;;;;;;;5092998;27;45572;-78
2022/09/11 10:21:10;;;;;;;;;15.00;15.00;;;;;;;;5076759;27;45375;-79
2022/09/11 10:23:43;;;;;;;;;15.00;15.00;;;;;;;;5076707;28;45399;-79
2022/09/11 10:26:14;;;;;;;;;9.50;9.50;;;;;;;;5083261;27;46170;-79
2022/09/11 10:28:39;;;;;;;;;11.75;11.75;;;;;;;;5091860;27;45578;-79
2022/09/11 10:31:05;;;;;;;;;15.50;15.50;;;;;;;;5088332;27;45464;-79
2022/09/11 10:33:33;;;;;;;;;15.50;15.50;;;;;;;;5098041;27;45380;-80
2022/09/11 10:35:59;;;;;;;;;14.25;14.25;;;;;;;;5096197;27;46804;-79
2022/09/11 10:38:34;;;;;;;;;11.50;11.50;;;;;;;;5097011;27;45333;-78
2022/09/11 10:41:12;;;;;;;;;13.50;13.50;;;;;;;;5095455;27;45356;-76
2022/09/11 10:43:37;;;;;;;;;11.00;10.25;;;;;;;;5063268;27;45515;-78
2022/09/11 10:46:03;;;;;;;;;13.50;13.50;;;;;;;;5094965;27;45541;-77
2022/09/11 10:48:29;;;;;;;;;8.50;8.50;;;;;;;;5066176;28;45835;-79
2022/09/11 10:51:04;;;;;;;;;14.25;14.25;;;;;;;;5061170;28;45442;-79
2022/09/11 10:53:32;;;;;;;;;9.75;9.75;;;;;;;;5078766;27;45241;-79
2022/09/11 10:55:59;;;;;;;;;9.25;9.25;;;;;;;;5068236;27;45511;-79
2022/09/11 10:58:29;;;;;;;;;13.50;13.50;;;;;;;;5078381;27;45450;-77
2022/09/11 11:00:55;;;;;;;;;9.00;9.00;;;;;;;;5098440;27;45795;-75
2022/09/11 11:03:25;;;;;;;;;7.00;7.00;;;;;;;;5079231;27;45620;-80
2022/09/11 11:05:57;;;;;;;;;12.25;12.25;;;;;;;;5079576;27;46485;-80
2022/09/11 11:08:28;;;;;;;;;9.00;9.00;;;;;;;;5089200;27;45286;-76
2022/09/11 11:11:16;;;;;;;;;7.75;7.75;;;;;;;;5085773;28;45158;-77
2022/09/11 11:13:54;;;;;;;;;6.50;6.50;;;;;;;;5076390;28;45470;-77
2022/09/11 11:16:38;;;;;;;;;7.25;7.25;;;;;;;;5064115;28;45386;-77
2022/09/11 11:19:07;;;;;;;;;9.00;9.00;;;;;;;;5055970;27;45573;-76
2022/09/11 11:21:32;;;;;;;;;9.50;9.50;;;;;;;;5091571;27;45426;-77
2022/09/11 11:24:14;;;;;;;;;8.50;8.50;;;;;;;;5078693;28;45430;-76
2022/09/11 11:26:42;;;;;;;;;7.00;7.00;;;;;;;;5088754;27;45761;-82
2022/09/11 11:29:27;;;;;;;;;11.75;11.50;;;;;;;;5063962;28;45412;-81
2022/09/11 11:32:11;;;;;;;;;22.50;22.50;;;;;;;;5043274;28;45446;-80
2022/09/11 11:34:36;;;;;;;;;14.50;14.50;;;;;;;;5050265;27;45807;-81
2022/09/11 11:37:07;;;;;;;;;8.00;8.00;;;;;;;;5095855;27;45349;-81
2022/09/11 11:39:35;;;;;;;;;8.00;8.00;;;;;;;;5075424;27;45397;-80
2022/09/11 11:42:04;;;;;;;;;8.00;8.00;;;;;;;;5072717;27;45417;-78
2022/09/11 11:44:50;;;;;;;;;5.00;5.00;;;;;;;;5053381;28;45705;-80
2022/09/11 11:47:17;;;;;;;;;7.25;7.25;;;;;;;;5064718;27;47270;-79
2022/09/11 11:50:01;;;;;;;;;7.50;7.50;;;;;;;;5062049;27;45616;-79
2022/09/11 11:52:45;;;;;;;;;6.00;6.00;;;;;;;;5095835;27;45367;-79
2022/09/11 11:55:10;;;;;;;;;6.00;6.00;;;;;;;;5074856;27;45508;-80
2022/09/11 11:57:39;;;;;;;;;6.25;6.25;;;;;;;;5078651;27;46293;-80
2022/09/11 12:00:11;;;;;;;;;7.75;7.75;;;;;;;;5094369;27;45485;-76
2022/09/11 12:02:55;;;;;;;;;7.75;7.75;;;;;;;;5076849;27;45350;-79
2022/09/11 12:05:25;;;;;;;;;11.50;11.50;;;;;;;;5073828;27;46309;-79
2022/09/11 12:07:51;;;;;;;;;12.50;12.50;;;;;;;;5094980;27;46491;-75
2022/09/11 12:10:18;;;;;;;;;7.25;7.25;;;;;;;;5098010;27;45347;-78
2022/09/11 12:12:46;;;;;;;;;11.50;11.50;;;;;;;;5071526;28;45390;-78
2022/09/11 12:15:22;;;;;;;;;8.50;8.50;;;;;;;;5094718;27;45580;-83
2022/09/11 12:17:59;;;;;;;;;4.25;4.25;;;;;;;;5071492;27;46686;-82
2022/09/11 12:20:35;;;;;;;;;3.75;2.75;;;;;;;;5105903;27;45468;-84
2022/09/11 12:23:00;;;;;;;;;7.75;7.75;;;;;;;;5088668;27;45428;-83
2022/09/11 12:25:30;;;;;;;;;6.00;6.00;;;;;;;;5090550;27;45410;-84
2022/09/11 12:28:14;;;;;;;;;11.00;11.00;;;;;;;;5097526;27;45393;-84
2022/09/11 12:31:00;;;;;;;;;8.75;8.75;;;;;;;;5052760;28;45347;-83
2022/09/11 12:33:40;;;;;;;;;7.25;7.25;;;;;;;;5058712;28;45238;-82
2022/09/11 12:36:08;;;;;;;;;9.00;8.75;;;;;;;;5088913;27;45510;-82
2022/09/11 12:38:40;;;;;;;;;7.50;7.50;;;;;;;;5081169;27;46484;-78
2022/09/11 12:41:11;;;;;;;;;6.25;6.25;;;;;;;;5083116;27;45307;-82
2022/09/11 12:43:43;;;;;;;;;9.00;9.00;;;;;;;;5087175;27;45214;-77
2022/09/11 12:46:33;;;;;;;;;9.25;9.25;;;;;;;;5082485;27;45443;-80
2022/09/11 12:48:59;;;;;;;;;5.75;5.75;;;;;;;;5055684;28;46164;-81
2022/09/11 12:51:28;;;;;;;;;5.25;5.25;;;;;;;;5095147;27;45366;-83
2022/09/11 12:53:59;;;;;;;;;6.50;6.50;;;;;;;;5097148;27;45315;-80
2022/09/11 12:56:25;;;;;;;;;6.25;6.25;;;;;;;;5091021;27;45511;-78
2022/09/11 12:58:57;;;;;;;;;6.00;6.00;;;;;;;;5082360;27;45460;-77
2022/09/11 13:01:25;;;;;;;;;5.00;5.00;;;;;;;;5098590;27;45611;-78
2022/09/11 13:03:51;;;;;;;;;74.75;69.50;;;;;;;;5098411;27;45401;-72
2022/09/11 13:06:16;;;;;;;;;8.00;8.00;;;;;;;;5074460;27;45442;-75
2022/09/11 13:08:45;;;;;;;;;5.25;5.25;;;;;;;;5078886;27;45323;-72
2022/09/11 13:11:29;;;;;;;;;4.50;4.50;;;;;;;;5039489;28;45353;-74
2022/09/11 13:13:55;;;;;;;;;8.75;8.75;;;;;;;;5039701;28;45438;-72
2022/09/11 13:16:28;;;;;;;;;6.00;6.00;;;;;;;;5057424;28;45221;-70
2022/09/11 13:19:09;;;;;;;;;5.50;5.50;;;;;;;;5038950;28;46982;-73
2022/09/11 13:21:38;;;;;;;;;5.25;5.25;;;;;;;;5057263;28;45450;-72
2022/09/11 13:24:19;;;;;;;;;45.00;39.00;;;;;;;;5057589;28;45359;-72
2022/09/11 13:26:45;;;;;;;;;6.50;6.50;;;;;;;;5071977;28;45423;-71
2022/09/11 13:29:12;;;;;;;;;30.00;29.25;;;;;;;;5077351;28;46157;-72
2022/09/11 13:31:38;;;;;;;;;33.50;31.25;;;;;;;;5076757;28;45460;-73
2022/09/11 13:34:06;;;;;;;;;7.00;7.00;;;;;;;;5078121;28;45401;-71
2022/09/11 13:36:33;;;;;;;;;23.75;23.75;;;;;;;;5059756;28;45515;-72
2022/09/11 13:39:00;;;;;;;;;6.00;6.00;;;;;;;;5077048;28;45513;-70
2022/09/11 13:41:28;;;;;;;;;6.25;6.25;;;;;;;;5077249;28;45351;-75
2022/09/11 13:44:00;;;;;;;;;6.75;6.75;;;;;;;;5075563;28;45505;-72
2022/09/11 13:46:33;;;;;;;;;5.25;5.25;;;;;;;;5075866;27;45400;-72
2022/09/11 13:49:05;;;;;;;;;4.00;4.00;;;;;;;;5076621;28;46278;-73
2022/09/11 13:51:31;;;;;;;;;3.75;3.75;;;;;;;;5077313;28;45509;-70
2022/09/11 13:54:04;;;;;;;;;4.00;4.00;;;;;;;;5077549;28;45259;-75
2022/09/11 13:56:49;;;;;;;;;17.50;17.50;;;;;;;;5059306;28;45549;-75
2022/09/11 13:59:34;;;;;;;;;18.00;18.00;;;;;;;;5077277;28;45303;-73
2022/09/11 14:02:00;;;;;;;;;4.25;4.25;;;;;;;;5076288;28;45308;-72
2022/09/11 14:04:27;;;;;;;;;11.00;10.50;;;;;;;;5076858;28;45372;-76
2022/09/11 14:06:52;;;;;;;;;10.25;10.25;;;;;;;;5076760;28;45349;-72
2022/09/11 14:09:19;;;;;;;;;5.75;5.75;;;;;;;;5076366;28;46492;-72
2022/09/11 14:11:44;;;;;;;;;3.00;3.00;;;;;;;;5076688;28;45430;-75
2022/09/11 14:14:12;;;;;;;;;20.00;20.00;;;;;;;;5076580;28;45295;-72
2022/09/11 14:16:44;;;;;;;;;13.25;13.25;;;;;;;;5076715;28;45366;-71
2022/09/11 14:19:35;;;;;;;;;9.00;9.00;;;;;;;;5058024;28;48002;-73
2022/09/11 14:22:12;;;;;;;;;5.00;5.00;;;;;;;;5071767;28;45424;-72
2022/09/11 14:24:37;;;;;;;;;6.00;6.00;;;;;;;;5077695;28;45318;-73
2022/09/11 14:27:23;;;;;;;;;7.75;7.75;;;;;;;;5076672;28;45519;-70
2022/09/11 14:29:52;;;;;;;;;4.75;4.75;;;;;;;;5059023;28;46494;-72
2022/09/11 14:32:26;;;;;;;;;2.00;2.00;;;;;;;;5077657;28;45477;-72